createdAt,value
2024-04-22T00:01:46.867Z,98614.41
2024-04-22T00:04:15.213Z,98620.75
2024-04-22T00:06:45.269Z,98614.41
2024-04-22T00:09:16.031Z,98623.41
2024-04-22T00:11:43.612Z,98618.91
2024-04-22T00:14:13.240Z,98619.09
2024-04-22T00:16:44.119Z,98623.41
2024-04-22T00:19:12.088Z,98628.72
2024-04-22T00:21:39.585Z,98617.25
2024-04-22T00:24:08.791Z,98619.28
2024-04-22T00:26:36.678Z,98622.59
2024-04-22T00:29:04.521Z,98614.78
2024-04-22T00:31:32.052Z,98612.94
2024-04-22T00:33:59.890Z,98606.00
2024-04-22T00:36:27.323Z,98610.47
2024-04-22T00:38:55.177Z,98608.84
2024-04-22T00:41:26.546Z,98610.69
2024-04-22T00:43:54.396Z,98607.00
2024-04-22T00:46:22.096Z,98604.50
2024-04-22T00:48:49.897Z,98602.69
2024-04-22T00:51:17.643Z,98592.88
2024-04-22T00:53:45.546Z,98599.19
2024-04-22T00:56:13.126Z,98603.50
2024-04-22T00:58:41.120Z,98597.56
2024-04-22T01:01:11.156Z,98592.25
2024-04-22T01:03:39.247Z,98595.72
2024-04-22T01:06:06.854Z,98598.38
2024-04-22T01:08:34.823Z,98589.56
2024-04-22T01:11:02.704Z,98592.25
2024-04-22T01:13:30.888Z,98595.91
2024-04-22T01:15:58.531Z,98595.91
2024-04-22T01:18:27.059Z,98594.25
2024-04-22T01:20:55.634Z,98595.06
2024-04-22T01:23:23.624Z,98600.41
2024-04-22T01:25:56.750Z,98597.94
2024-04-22T01:28:24.779Z,98604.91
2024-04-22T01:30:52.381Z,98603.25
2024-04-22T01:33:20.298Z,98601.59
2024-04-22T01:35:47.783Z,98601.59
2024-04-22T01:38:15.766Z,98606.91
2024-04-22T01:40:43.371Z,98600.78
2024-04-22T01:43:11.261Z,98606.91
2024-04-22T01:45:38.722Z,98610.59
2024-04-22T01:48:07.009Z,98599.97
2024-04-22T01:50:34.461Z,98608.94
2024-04-22T01:53:02.384Z,98605.28
2024-04-22T01:55:30.045Z,98604.66
2024-04-22T01:57:57.977Z,98596.66
2024-04-22T02:00:25.502Z,98598.31
2024-04-22T02:02:54.280Z,98596.66
2024-04-22T02:05:22.164Z,98594.00
2024-04-22T02:07:50.077Z,98596.66
2024-04-22T02:10:23.300Z,98601.16
2024-04-22T02:12:53.003Z,98595.00
2024-04-22T02:15:20.643Z,98595.00
2024-04-22T02:17:49.100Z,98605.66
2024-04-22T02:20:17.009Z,98604.81
2024-04-22T02:22:45.073Z,98604.00
2024-04-22T02:25:12.806Z,98610.31
2024-04-22T02:27:40.647Z,98607.66
2024-04-22T02:30:08.653Z,98614.66
2024-04-22T02:32:36.866Z,98613.84
2024-04-22T02:35:04.468Z,98606.03
2024-04-22T02:37:32.479Z,98606.03
2024-04-22T02:39:59.899Z,98607.03
2024-04-22T02:42:27.843Z,98612.16
2024-04-22T02:44:55.634Z,98616.66
2024-04-22T02:47:23.483Z,98616.66
2024-04-22T02:49:51.007Z,98608.88
2024-04-22T02:52:18.990Z,98614.81
2024-04-22T02:54:46.702Z,98616.03
2024-04-22T02:57:14.506Z,98614.19
2024-04-22T02:59:41.978Z,98611.53
2024-04-22T03:02:09.870Z,98611.72
2024-04-22T03:04:37.499Z,98618.69
2024-04-22T03:07:06.766Z,98619.69
2024-04-22T03:09:40.697Z,98619.69
2024-04-22T03:12:08.846Z,98610.72
2024-04-22T03:14:37.054Z,98616.03
2024-04-22T03:17:06.256Z,98611.72
2024-04-22T03:19:33.974Z,98620.72
2024-04-22T03:22:01.862Z,98620.72
2024-04-22T03:24:29.343Z,98623.38
2024-04-22T03:26:57.273Z,98620.72
2024-04-22T03:29:24.876Z,98612.72
2024-04-22T03:31:52.823Z,98614.56
2024-04-22T03:34:20.373Z,98621.72
2024-04-22T03:36:48.518Z,98624.38
2024-04-22T03:39:16.195Z,98628.06
2024-04-22T03:41:44.121Z,98633.38
2024-04-22T03:44:12.370Z,98628.06
2024-04-22T03:46:59.044Z,98622.72
2024-04-22T03:49:45.723Z,98623.75
2024-04-22T03:52:13.845Z,98621.09
2024-04-22T03:54:41.798Z,98627.41
2024-04-22T03:57:09.596Z,98634.38
2024-04-22T03:59:37.110Z,98640.72
2024-04-22T04:02:05.186Z,98639.06
2024-04-22T04:04:33.295Z,98639.06
2024-04-22T04:07:01.337Z,98641.72
2024-04-22T04:09:28.836Z,98643.53
2024-04-22T04:11:56.839Z,98655.03
2024-04-22T04:14:44.182Z,98649.72
2024-04-22T04:17:12.453Z,98655.03
2024-04-22T04:19:40.028Z,98648.03
2024-04-22T04:22:41.586Z,98647.22
2024-04-22T04:25:09.209Z,98660.34
2024-04-22T04:27:37.309Z,98663.19
2024-04-22T04:30:05.704Z,98659.50
2024-04-22T04:32:34.038Z,98667.69
2024-04-22T04:35:03.692Z,98667.69
2024-04-22T04:37:32.979Z,98671.31
2024-04-22T04:40:00.592Z,98664.16
2024-04-22T04:42:28.714Z,98666.66
2024-04-22T04:44:56.906Z,98673.00
2024-04-22T04:47:24.802Z,98673.00
2024-04-22T04:49:52.431Z,98676.66
2024-04-22T04:52:20.242Z,98678.31
2024-04-22T04:54:50.077Z,98677.47
2024-04-22T04:57:19.606Z,98679.13
2024-04-22T04:59:47.186Z,98687.91
2024-04-22T05:02:15.464Z,98686.94
2024-04-22T05:04:43.058Z,98684.28
2024-04-22T05:07:13.957Z,98692.25
2024-04-22T05:09:42.918Z,98694.91
2024-04-22T05:12:10.839Z,98693.88
2024-04-22T05:14:38.716Z,98692.25
2024-04-22T05:17:06.561Z,98699.19
2024-04-22T05:19:34.144Z,98693.88
2024-04-22T05:22:02.115Z,98698.38
2024-04-22T05:24:30.050Z,98698.09
2024-04-22T05:26:57.985Z,98702.69
2024-04-22T05:29:25.660Z,98701.78
2024-04-22T05:31:53.590Z,98698.84
2024-04-22T05:34:39.880Z,98702.50
2024-04-22T05:37:07.857Z,98705.81
2024-04-22T05:39:35.431Z,98709.09
2024-04-22T05:42:03.253Z,98710.56
2024-04-22T05:44:30.829Z,98713.03
2024-04-22T05:46:58.706Z,98719.00
2024-04-22T05:49:29.329Z,98719.81
2024-04-22T05:51:58.077Z,98721.28
2024-04-22T05:54:26.384Z,98715.78
2024-04-22T05:56:54.316Z,98724.78
2024-04-22T05:59:21.795Z,98726.25
2024-04-22T06:01:49.746Z,98727.25
2024-04-22T06:04:17.314Z,98734.22
2024-04-22T06:06:45.489Z,98733.41
2024-04-22T06:09:16.036Z,98728.09
2024-04-22T06:11:53.443Z,98726.25
2024-04-22T06:14:30.095Z,98732.38
2024-04-22T06:16:58.546Z,98734.88
2024-04-22T06:19:26.107Z,98728.75
2024-04-22T06:21:53.968Z,98737.53
2024-04-22T06:24:21.493Z,98742.03
2024-04-22T06:26:49.422Z,98737.53
2024-04-22T06:29:17.141Z,98744.47
2024-04-22T06:31:45.140Z,98744.47
2024-04-22T06:34:12.861Z,98744.47
2024-04-22T06:36:40.697Z,98750.44
2024-04-22T06:39:08.131Z,98752.09
2024-04-22T06:41:35.983Z,98755.59
2024-04-22T06:44:03.513Z,98752.53
2024-04-22T06:46:31.531Z,98760.53
2024-04-22T06:48:59.125Z,98760.34
2024-04-22T06:51:27.005Z,98764.66
2024-04-22T06:53:54.544Z,98763.00
2024-04-22T06:56:22.588Z,98773.63
2024-04-22T06:58:50.096Z,98773.63
2024-04-22T07:01:27.250Z,98782.44
2024-04-22T07:04:03.058Z,98778.97
2024-04-22T07:06:32.186Z,98780.63
2024-04-22T07:08:59.980Z,98785.94
2024-04-22T07:11:28.191Z,98788.59
2024-04-22T07:13:55.968Z,98785.09
2024-04-22T07:16:23.817Z,98795.56
2024-04-22T07:18:53.225Z,98801.91
2024-04-22T07:21:21.421Z,98799.84
2024-04-22T07:23:48.945Z,98797.19
2024-04-22T07:26:17.045Z,98796.19
2024-04-22T07:28:44.920Z,98803.16
2024-04-22T07:31:13.270Z,98802.16
2024-04-22T07:33:41.149Z,98813.78
2024-04-22T07:36:38.955Z,98815.47
2024-04-22T07:39:08.035Z,98810.13
2024-04-22T07:41:36.260Z,98806.47
2024-04-22T07:44:04.532Z,98808.13
2024-04-22T07:46:32.551Z,98809.75
2024-04-22T07:49:00.411Z,98822.88
2024-04-22T07:51:28.286Z,98819.41
2024-04-22T07:53:56.028Z,98817.75
2024-04-22T07:56:24.314Z,98822.06
2024-04-22T07:58:52.300Z,98821.25
2024-04-22T08:01:20.607Z,98826.56
2024-04-22T08:03:48.422Z,98825.72
2024-04-22T08:06:20.878Z,98822.88
2024-04-22T08:08:48.619Z,98829.84
2024-04-22T08:11:16.676Z,98817.56
2024-04-22T08:13:45.038Z,98828.03
2024-04-22T08:16:13.403Z,98825.38
2024-04-22T08:18:40.873Z,98820.88
2024-04-22T08:21:09.322Z,98824.53
2024-04-22T08:23:37.651Z,98828.84
2024-04-22T08:26:05.856Z,98833.34
2024-04-22T08:28:33.423Z,98827.00
2024-04-22T08:31:06.557Z,98826.19
2024-04-22T08:33:34.365Z,98825.38
2024-04-22T08:36:02.503Z,98828.03
2024-04-22T08:38:30.179Z,98821.69
2024-04-22T08:40:58.324Z,98826.00
2024-04-22T08:43:26.230Z,98822.50
2024-04-22T08:45:54.306Z,98822.50
2024-04-22T08:48:21.946Z,98828.47
2024-04-22T08:50:53.779Z,98834.81
2024-04-22T08:53:21.385Z,98832.97
2024-04-22T08:55:49.532Z,98826.00
2024-04-22T08:58:17.299Z,98832.31
2024-04-22T09:00:45.218Z,98831.34
2024-04-22T09:03:13.150Z,98834.97
2024-04-22T09:05:42.042Z,98830.69
2024-04-22T09:08:11.027Z,98833.34
2024-04-22T09:11:08.830Z,98842.97
2024-04-22T09:13:26.899Z,98837.63
2024-04-22T09:15:57.054Z,98834.00
2024-04-22T09:18:29.719Z,98840.13
2024-04-22T09:21:07.633Z,98839.09
2024-04-22T09:23:35.853Z,98831.97
2024-04-22T09:26:04.247Z,98834.44
2024-04-22T09:28:37.075Z,98842.25
2024-04-22T09:31:06.429Z,98839.56
2024-04-22T09:33:36.148Z,98842.25
2024-04-22T09:36:05.557Z,98844.72
2024-04-22T09:38:46.123Z,98845.53
2024-04-22T09:41:17.582Z,98838.56
2024-04-22T09:43:50.143Z,98847.19
2024-04-22T09:46:27.897Z,98842.88
2024-04-22T09:48:57.347Z,98855.16
2024-04-22T09:51:26.599Z,98841.84
2024-04-22T09:53:54.454Z,98844.50
2024-04-22T09:56:34.947Z,98840.03
2024-04-22T09:59:05.443Z,98836.53
2024-04-22T10:01:33.919Z,98854.00
2024-04-22T10:04:02.578Z,98849.50
2024-04-22T10:06:32.134Z,98853.78
2024-04-22T10:09:01.133Z,98840.47
2024-04-22T10:11:33.779Z,98840.47
2024-04-22T10:14:15.212Z,98843.16
2024-04-22T10:17:00.562Z,98840.34
2024-04-22T10:19:36.141Z,98848.16
2024-04-22T10:22:06.060Z,98846.13
2024-04-22T10:24:38.987Z,98840.16
2024-04-22T10:27:13.290Z,98840.81
2024-04-22T10:29:44.323Z,98838.16
2024-04-22T10:32:13.039Z,98833.47
2024-04-22T10:34:44.830Z,98832.28
2024-04-22T10:37:13.983Z,98833.09
2024-04-22T10:39:45.094Z,98828.41
2024-04-22T10:42:14.060Z,98831.06
2024-04-22T10:44:43.386Z,98828.25
2024-04-22T10:47:13.275Z,98820.44
2024-04-22T10:49:42.942Z,98825.75
2024-04-22T10:52:11.828Z,98826.56
2024-04-22T10:54:39.447Z,98825.38
2024-04-22T10:57:07.770Z,98824.38
2024-04-22T10:59:35.714Z,98823.56
2024-04-22T11:02:04.677Z,98825.56
2024-04-22T11:04:32.786Z,98821.72
2024-04-22T11:07:01.496Z,98816.81
2024-04-22T11:09:28.968Z,98815.66
2024-04-22T11:11:57.152Z,98819.31
2024-04-22T11:14:25.523Z,98818.13
2024-04-22T11:16:57.703Z,98816.31
2024-04-22T11:19:26.351Z,98821.25
2024-04-22T11:21:54.220Z,98822.69
2024-04-22T11:24:22.395Z,98821.88
2024-04-22T11:26:52.872Z,98814.53
2024-04-22T11:29:20.880Z,98823.16
2024-04-22T11:31:54.629Z,98804.34
2024-04-22T11:34:25.150Z,98807.63
2024-04-22T11:37:02.492Z,98795.16
2024-04-22T11:39:35.289Z,98805.59
2024-04-22T11:42:03.297Z,98801.78
2024-04-22T11:44:30.842Z,98802.41
2024-04-22T11:46:58.874Z,98792.56
2024-04-22T11:49:26.621Z,98796.44
2024-04-22T11:51:54.532Z,98793.41
2024-04-22T11:54:22.339Z,98797.69
2024-04-22T11:56:50.347Z,98800.19
2024-04-22T11:59:17.944Z,98798.34
2024-04-22T12:01:46.296Z,98800.34
2024-04-22T12:04:13.938Z,98797.09
2024-04-22T12:06:43.361Z,98797.09
2024-04-22T12:09:12.458Z,98799.09
2024-04-22T12:11:40.672Z,98801.94
2024-04-22T12:14:08.148Z,98793.16
2024-04-22T12:16:36.369Z,98784.53
2024-04-22T12:19:04.298Z,98797.81
2024-04-22T12:21:32.228Z,98787.19
2024-04-22T12:24:00.054Z,98795.16
2024-04-22T12:26:28.516Z,98789.84
2024-04-22T12:28:56.428Z,98794.53
2024-04-22T12:31:24.943Z,98801.47
2024-04-22T12:33:58.779Z,98787.38
2024-04-22T12:36:36.118Z,98801.47
2024-04-22T12:39:03.691Z,98801.47
2024-04-22T12:41:31.674Z,98799.03
2024-04-22T12:44:02.817Z,98796.56
2024-04-22T12:46:42.375Z,98796.56
2024-04-22T12:49:28.414Z,98799.38
2024-04-22T12:51:56.456Z,98805.53
2024-04-22T12:54:25.463Z,98797.53
2024-04-22T12:56:55.041Z,98803.06
2024-04-22T12:59:22.611Z,98812.88
2024-04-22T13:01:51.378Z,98808.56
2024-04-22T13:04:20.089Z,98811.25
2024-04-22T13:06:48.016Z,98814.06
2024-04-22T13:09:18.383Z,98817.56
2024-04-22T13:11:46.685Z,98823.91
2024-04-22T13:14:15.611Z,98818.56
2024-04-22T13:16:43.599Z,98820.22
2024-04-22T13:19:11.533Z,98816.94
2024-04-22T13:21:39.496Z,98818.56
2024-04-22T13:24:07.755Z,98816.09
2024-04-22T13:26:35.741Z,98827.59
2024-04-22T13:29:04.049Z,98829.59
2024-04-22T13:31:40.535Z,98829.59
2024-04-22T13:34:14.618Z,98840.25
2024-04-22T13:36:42.891Z,98833.25
2024-04-22T13:39:12.783Z,98841.41
2024-04-22T13:41:40.813Z,98840.59
2024-04-22T13:44:09.246Z,98842.28
2024-04-22T13:46:38.844Z,98840.59
2024-04-22T13:49:11.471Z,98835.28
2024-04-22T13:51:39.480Z,98840.59
2024-04-22T13:54:08.837Z,98837.94
2024-04-22T13:56:37.317Z,98840.44
2024-04-22T13:59:05.009Z,98847.59
2024-04-22T14:01:33.541Z,98843.91
2024-04-22T14:04:01.508Z,98842.28
2024-04-22T14:06:29.396Z,98843.91
2024-04-22T14:08:56.942Z,98843.91
2024-04-22T14:11:24.966Z,98849.41
2024-04-22T14:13:53.390Z,98851.25
2024-04-22T14:16:22.428Z,98849.59
2024-04-22T14:18:54.304Z,98852.28
2024-04-22T14:21:23.812Z,98853.25
2024-04-22T14:23:51.570Z,98852.44
2024-04-22T14:26:20.851Z,98854.28
2024-04-22T14:28:48.917Z,98862.28
2024-04-22T14:31:17.066Z,98858.78
2024-04-22T14:33:44.597Z,98858.97
2024-04-22T14:36:16.357Z,98869.59
2024-04-22T14:38:46.147Z,98860.81
2024-04-22T14:41:13.985Z,98865.28
2024-04-22T14:43:41.671Z,98865.50
2024-04-22T14:46:09.751Z,98876.13
2024-04-22T14:48:38.292Z,98869.13
2024-04-22T14:51:10.358Z,98880.59
2024-04-22T14:53:42.068Z,98882.44
2024-04-22T14:56:10.548Z,98871.81
2024-04-22T14:58:38.243Z,98878.97
2024-04-22T15:01:07.262Z,98885.28
2024-04-22T15:03:37.701Z,98882.63
2024-04-22T15:06:06.872Z,98880.97
2024-04-22T15:08:34.705Z,98883.00
2024-04-22T15:11:07.009Z,98889.97
2024-04-22T15:13:38.809Z,98889.13
2024-04-22T15:16:07.358Z,98892.00
2024-04-22T15:18:38.511Z,98890.34
2024-04-22T15:21:06.471Z,98886.69
2024-04-22T15:23:36.814Z,98883.38
2024-04-22T15:26:05.348Z,98885.00
2024-04-22T15:28:34.706Z,98889.34
2024-04-22T15:31:06.531Z,98892.00
2024-04-22T15:33:34.581Z,98894.66
2024-04-22T15:36:04.533Z,98895.31
2024-04-22T15:38:32.586Z,98888.16
2024-04-22T15:41:01.862Z,98893.25
2024-04-22T15:43:29.588Z,98897.59
2024-04-22T15:46:04.346Z,98899.22
2024-04-22T15:48:51.779Z,98890.25
2024-04-22T15:51:19.977Z,98894.53
2024-04-22T15:53:47.506Z,98895.41
2024-04-22T15:56:16.535Z,98899.69
2024-04-22T15:58:44.438Z,98900.34
2024-04-22T16:01:14.539Z,98898.69
2024-04-22T16:03:45.761Z,98903.81
2024-04-22T16:06:24.275Z,98902.81
2024-04-22T16:08:51.863Z,98909.78
2024-04-22T16:11:20.013Z,98903.47
2024-04-22T16:13:48.468Z,98906.13
2024-04-22T16:16:18.134Z,98904.13
2024-04-22T16:18:49.637Z,98909.44
2024-04-22T16:21:36.140Z,98902.09
2024-04-22T16:24:07.613Z,98909.06
2024-04-22T16:26:54.266Z,98903.72
2024-04-22T16:29:22.823Z,98910.69
2024-04-22T16:31:50.808Z,98901.72
2024-04-22T16:34:18.715Z,98907.03
2024-04-22T16:36:46.748Z,98907.03
2024-04-22T16:39:15.780Z,98908.69
2024-04-22T16:41:46.650Z,98912.38
2024-04-22T16:44:32.024Z,98914.00
2024-04-22T16:46:59.930Z,98908.69
2024-04-22T16:49:28.227Z,98912.19
2024-04-22T16:51:56.556Z,98918.31
2024-04-22T16:54:25.450Z,98909.53
2024-04-22T16:56:54.230Z,98908.69
2024-04-22T16:59:23.423Z,98903.34
2024-04-22T17:01:54.220Z,98906.88
2024-04-22T17:04:22.161Z,98908.50
2024-04-22T17:06:50.209Z,98905.03
2024-04-22T17:09:23.277Z,98902.19
2024-04-22T17:11:52.947Z,98906.31
2024-04-22T17:14:20.840Z,98911.63
2024-04-22T17:16:48.990Z,98915.28
2024-04-22T17:19:18.576Z,98921.25
2024-04-22T17:21:47.961Z,98923.91
2024-04-22T17:24:18.157Z,98924.56
2024-04-22T17:26:47.547Z,98925.59
2024-04-22T17:29:15.351Z,98923.56
2024-04-22T17:31:46.906Z,98927.22
2024-04-22T17:34:14.935Z,98930.53
2024-04-22T17:36:42.830Z,98935.84
2024-04-22T17:39:11.163Z,98936.66
2024-04-22T17:41:39.147Z,98945.50
2024-04-22T17:44:08.923Z,98941.19
2024-04-22T17:46:37.033Z,98948.97
2024-04-22T17:49:06.504Z,98942.84
2024-04-22T17:51:36.823Z,98948.16
2024-04-22T17:54:04.420Z,98956.16
2024-04-22T17:56:38.058Z,98955.13
2024-04-22T17:59:06.353Z,98958.81
2024-04-22T18:01:34.294Z,98953.50
2024-04-22T18:04:01.882Z,98959.63
2024-04-22T18:06:29.927Z,98967.78
2024-04-22T18:08:57.463Z,98973.50
2024-04-22T18:11:25.727Z,98968.53
2024-04-22T18:13:53.503Z,98969.53
2024-04-22T18:16:21.500Z,98977.69
2024-04-22T18:18:49.026Z,98969.88
2024-04-22T18:21:17.419Z,98980.53
2024-04-22T18:23:45.482Z,98982.53
2024-04-22T18:26:14.975Z,98984.59
2024-04-22T18:28:44.121Z,98990.91
2024-04-22T18:31:12.190Z,98986.59
2024-04-22T18:33:39.994Z,98992.91
2024-04-22T18:36:08.384Z,98991.28
2024-04-22T18:38:36.172Z,98989.63
2024-04-22T18:41:05.550Z,98991.44
2024-04-22T18:43:34.686Z,98997.75
2024-04-22T18:46:21.183Z,99000.63
2024-04-22T18:48:48.627Z,99000.63
2024-04-22T18:51:21.622Z,99003.09
2024-04-22T18:53:49.601Z,98996.59
2024-04-22T18:56:17.479Z,99002.56
2024-04-22T18:58:45.273Z,99006.06
2024-04-22T19:01:13.252Z,99002.38
2024-04-22T19:03:42.394Z,99002.19
2024-04-22T19:06:12.715Z,99009.38
2024-04-22T19:08:40.981Z,98999.53
2024-04-22T19:11:08.929Z,98999.53
2024-04-22T19:13:36.670Z,98994.22
2024-04-22T19:16:04.730Z,98997.53
2024-04-22T19:18:32.306Z,99002.03
2024-04-22T19:21:00.325Z,99001.19
2024-04-22T19:23:28.056Z,99006.50
2024-04-22T19:25:56.252Z,99000.34
2024-04-22T19:28:28.236Z,98998.72
2024-04-22T19:30:56.726Z,99006.50
2024-04-22T19:33:25.100Z,99004.84
2024-04-22T19:35:53.830Z,99006.50
2024-04-22T19:38:39.981Z,99007.53
2024-04-22T19:41:08.204Z,99004.84
2024-04-22T19:43:35.797Z,99005.69
2024-04-22T19:46:03.753Z,99011.81
2024-04-22T19:48:32.786Z,99008.53
2024-04-22T19:51:00.726Z,99013.00
2024-04-22T19:53:28.293Z,99006.22
2024-04-22T19:55:56.826Z,98998.25
2024-04-22T19:58:24.618Z,99013.38
2024-04-22T20:00:52.797Z,99013.56
2024-04-22T20:03:20.602Z,99014.59
2024-04-22T20:05:48.579Z,99017.41
2024-04-22T20:08:16.225Z,99010.44
2024-04-22T20:10:44.447Z,99010.63
2024-04-22T20:13:12.913Z,99011.63
2024-04-22T20:15:50.812Z,99006.28
2024-04-22T20:18:29.250Z,99002.81
2024-04-22T20:20:58.050Z,99008.31
2024-04-22T20:23:25.814Z,99003.00
2024-04-22T20:25:55.548Z,98997.03
2024-04-22T20:28:24.763Z,98989.03
2024-04-22T20:30:53.763Z,98990.06
2024-04-22T20:33:24.262Z,98996.41
2024-04-22T20:35:54.671Z,99000.88
2024-04-22T20:38:24.638Z,98997.38
2024-04-22T20:41:00.660Z,99002.06
2024-04-22T20:43:33.772Z,99003.91
2024-04-22T20:46:03.373Z,98996.75
2024-04-22T20:48:35.050Z,99008.41
2024-04-22T20:51:05.023Z,99013.06
2024-04-22T20:53:34.272Z,99012.22
2024-04-22T20:56:03.666Z,99007.75
2024-04-22T20:58:37.799Z,99011.41
2024-04-22T21:01:07.775Z,99022.03
2024-04-22T21:03:35.945Z,99022.03
2024-04-22T21:06:05.390Z,99024.03
2024-04-22T21:08:33.989Z,99017.88
2024-04-22T21:11:03.775Z,99017.06
2024-04-22T21:13:42.434Z,99004.75
2024-04-22T21:16:10.811Z,98999.63
2024-04-22T21:18:38.298Z,99002.47
2024-04-22T21:21:06.716Z,99017.41
2024-04-22T21:23:34.668Z,99015.75
2024-04-22T21:26:02.722Z,99015.75
2024-04-22T21:28:30.599Z,99005.28
2024-04-22T21:30:58.728Z,99000.78
2024-04-22T21:33:41.673Z,98996.50
2024-04-22T21:36:14.241Z,99000.19
2024-04-22T21:38:42.549Z,98998.50
2024-04-22T21:41:10.923Z,98996.03
2024-04-22T21:43:38.537Z,98998.50
2024-04-22T21:46:06.433Z,98996.03
2024-04-22T21:48:34.310Z,99004.00
2024-04-22T21:51:02.726Z,99003.19
2024-04-22T21:53:30.176Z,99003.34
2024-04-22T21:56:08.533Z,99013.16
2024-04-22T21:59:16.392Z,99015.81
2024-04-22T22:02:22.152Z,99012.34
2024-04-22T22:05:27.434Z,99015.00
2024-04-22T22:07:57.431Z,99001.88
2024-04-22T22:10:25.214Z,99009.84
2024-04-22T22:12:54.203Z,99010.69
2024-04-22T22:15:21.830Z,99008.22
2024-04-22T22:17:55.185Z,99011.88
2024-04-22T22:20:24.289Z,99011.88
2024-04-22T22:22:52.402Z,99014.72
2024-04-22T22:25:20.155Z,99005.72
2024-04-22T22:27:52.258Z,99001.44
2024-04-22T22:30:21.433Z,98990.97
2024-04-22T22:32:49.592Z,98992.59
2024-04-22T22:35:17.718Z,98986.63
2024-04-22T22:37:49.026Z,98990.97
2024-04-22T22:40:19.117Z,98991.94
2024-04-22T22:42:49.313Z,98991.94
2024-04-22T22:45:18.277Z,98994.59
2024-04-22T22:47:49.517Z,98987.66
2024-04-22T22:50:19.856Z,98989.50
2024-04-22T22:52:55.589Z,98987.66
2024-04-22T22:55:23.662Z,98981.69
2024-04-22T22:57:53.643Z,98984.34
2024-04-22T23:00:23.016Z,98987.00
2024-04-22T23:03:07.512Z,98993.34
2024-04-22T23:05:37.494Z,98998.66
2024-04-22T23:08:14.130Z,98996.97
2024-04-22T23:10:49.323Z,98995.34
2024-04-22T23:13:37.068Z,98998.81
2024-04-22T23:16:04.607Z,99010.28
2024-04-22T23:18:32.838Z,98999.00
2024-04-22T23:21:00.489Z,98999.00
2024-04-22T23:23:28.333Z,99004.31
2024-04-22T23:25:56.084Z,99002.47
2024-04-22T23:28:24.066Z,99002.66
2024-04-22T23:30:54.634Z,99001.81
2024-04-22T23:33:22.497Z,99000.00
2024-04-22T23:35:50.238Z,98985.03
2024-04-22T23:38:18.149Z,98983.41
2024-04-22T23:40:45.631Z,98987.88
2024-04-22T23:43:13.654Z,98978.09
2024-04-22T23:45:41.126Z,98979.91
2024-04-22T23:48:09.036Z,98979.09
2024-04-22T23:50:36.755Z,98988.91
2024-04-22T23:53:04.766Z,98983.75
2024-04-22T23:55:32.358Z,98978.44
2024-04-22T23:58:00.215Z,98981.28
